Time;durP1;ratioP1;P1;durP2;ratioP2;P2;SDS_P1;SDS_P2;PMS_P1;PMS_P2;Temp;Humidity;BMP_temperature;BMP_pressure;BME280_temperature;BME280_humidity;BME280_pressure;Samples;Min_cycle;Max_cycle;Signal;HPM_P1;HPM_P2
2022/09/16 00:00:37;;;;;;;3.10;1.17;;;21.50;99.90;;;;;;4179591;28;20261;-80
2022/09/16 00:02:39;;;;;;;1.77;1.10;;;21.50;99.90;;;;;;4179486;28;20282;-79
2022/09/16 00:04:43;;;;;;;1.58;1.27;;;21.50;99.90;;;;;;4172671;28;20217;-79
2022/09/16 00:06:45;;;;;;;2.97;1.20;;;21.50;99.90;;;;;;4173167;28;20293;-80
2022/09/16 00:08:48;;;;;;;1.90;1.30;;;21.40;99.90;;;;;;4178030;28;20212;-79
2022/09/16 00:10:51;;;;;;;2.67;1.20;;;21.40;99.90;;;;;;4178318;28;20265;-79
2022/09/16 00:12:53;;;;;;;2.30;1.10;;;21.40;99.90;;;;;;4178040;28;20234;-79
2022/09/16 00:14:55;;;;;;;1.35;1.00;;;21.40;99.90;;;;;;4178011;28;20297;-79
2022/09/16 00:16:58;;;;;;;1.90;1.20;;;21.40;99.90;;;;;;4178447;28;20212;-80
2022/09/16 00:19:02;;;;;;;2.47;1.23;;;21.40;99.90;;;;;;4178492;28;20224;-80
2022/09/16 00:21:07;;;;;;;2.50;1.00;;;21.40;99.90;;;;;;4178330;28;20270;-80
2022/09/16 00:23:09;;;;;;;1.55;1.02;;;21.50;99.90;;;;;;4177598;28;20240;-79
2022/09/16 00:25:11;;;;;;;3.72;1.27;;;21.40;99.90;;;;;;4174779;28;20231;-79
2022/09/16 00:27:14;;;;;;;4.03;1.30;;;21.40;99.90;;;;;;4180425;28;20259;-79
2022/09/16 00:29:16;;;;;;;2.53;1.13;;;21.40;99.90;;;;;;4181069;28;20618;-79
2022/09/16 00:31:18;;;;;;;1.95;0.90;;;21.40;99.90;;;;;;4181232;28;20295;-80
2022/09/16 00:33:21;;;;;;;1.92;1.00;;;21.40;99.90;;;;;;4181004;28;20216;-79
2022/09/16 00:35:23;;;;;;;2.47;1.30;;;21.40;99.90;;;;;;4181226;28;20692;-80
2022/09/16 00:37:27;;;;;;;3.70;1.38;;;21.40;99.90;;;;;;4180966;28;20271;-80
2022/09/16 00:39:29;;;;;;;2.00;1.02;;;21.40;99.90;;;;;;4180802;28;20275;-80
2022/09/16 00:41:32;;;;;;;3.60;1.25;;;21.40;99.90;;;;;;4179614;28;20257;-79
2022/09/16 00:43:51;;;;;;;2.20;1.00;;;21.40;99.90;;;;;;4180810;28;20232;-78
2022/09/16 00:45:58;;;;;;;2.28;1.15;;;21.40;99.90;;;;;;4181214;28;20211;-80
2022/09/16 00:48:05;;;;;;;1.60;1.15;;;21.40;99.90;;;;;;4180784;28;20212;-80
2022/09/16 00:50:10;;;;;;;1.48;1.10;;;21.40;99.90;;;;;;4187261;28;20196;-78
2022/09/16 00:52:13;;;;;;;2.13;1.20;;;21.40;99.90;;;;;;4184107;28;20269;-79
2022/09/16 00:54:18;;;;;;;2.70;1.10;;;21.40;99.90;;;;;;4182916;28;20262;-79
2022/09/16 00:56:22;;;;;;;2.08;1.17;;;21.40;99.90;;;;;;4182821;28;20216;-79
2022/09/16 00:58:32;;;;;;;1.70;1.10;;;21.40;99.90;;;;;;4179818;28;20289;-79
2022/09/16 01:00:35;;;;;;;2.55;1.02;;;21.40;99.90;;;;;;4181269;28;20212;-79
2022/09/16 01:02:37;;;;;;;3.58;1.35;;;21.40;99.90;;;;;;4181269;28;20664;-79
2022/09/16 01:04:44;;;;;;;2.00;1.15;;;21.30;99.90;;;;;;4178703;28;20270;-79
2022/09/16 01:06:46;;;;;;;2.60;1.35;;;21.30;99.90;;;;;;4178857;28;20251;-79
2022/09/16 01:08:50;;;;;;;2.30;1.05;;;21.30;99.90;;;;;;4181985;28;20258;-79
2022/09/16 01:10:54;;;;;;;3.17;1.30;;;21.30;99.90;;;;;;4181782;28;20215;-79
2022/09/16 01:12:59;;;;;;;1.40;0.90;;;21.40;99.90;;;;;;4182049;28;20656;-79
2022/09/16 01:15:03;;;;;;;1.42;1.10;;;21.40;99.90;;;;;;4176508;28;20220;-79
2022/09/16 01:17:10;;;;;;;2.17;1.10;;;21.40;99.90;;;;;;4181240;28;20258;-79
2022/09/16 01:19:25;;;;;;;3.35;1.20;;;21.30;99.90;;;;;;4181608;28;20749;-79
2022/09/16 01:21:43;;;;;;;2.20;1.13;;;21.30;99.90;;;;;;4181571;28;20261;-79
2022/09/16 01:24:02;;;;;;;2.05;1.15;;;21.40;99.90;;;;;;4181819;28;20231;-79
2022/09/16 01:26:24;;;;;;;2.10;1.35;;;21.30;99.90;;;;;;4181205;28;20261;-80
2022/09/16 01:28:46;;;;;;;1.27;1.00;;;21.30;99.90;;;;;;4181706;28;20273;-79
2022/09/16 01:31:07;;;;;;;1.75;1.20;;;21.30;99.90;;;;;;4181489;28;20949;-80
2022/09/16 01:33:20;;;;;;;2.08;1.13;;;21.30;99.90;;;;;;4169721;28;20224;-80
2022/09/16 01:35:29;;;;;;;2.28;1.02;;;21.30;99.90;;;;;;4173175;28;20635;-80
2022/09/16 01:37:44;;;;;;;1.33;1.02;;;21.30;99.90;;;;;;4180184;28;20264;-79
2022/09/16 01:39:51;;;;;;;3.00;1.17;;;21.30;99.90;;;;;;4171149;28;20566;-79
2022/09/16 01:42:05;;;;;;;1.92;0.98;;;21.30;99.90;;;;;;4181641;28;20220;-80
2022/09/16 01:44:17;;;;;;;1.55;1.10;;;21.30;99.90;;;;;;4179594;28;20232;-79
2022/09/16 01:46:26;;;;;;;1.75;1.10;;;21.30;99.90;;;;;;4175066;28;20262;-79
2022/09/16 01:48:37;;;;;;;1.55;1.10;;;21.30;99.90;;;;;;4180149;28;20648;-80
2022/09/16 01:50:44;;;;;;;1.88;1.15;;;21.30;99.90;;;;;;4180707;28;20220;-79
2022/09/16 01:52:58;;;;;;;2.08;1.20;;;21.30;99.90;;;;;;4181498;28;20268;-79
2022/09/16 01:55:03;;;;;;;2.13;1.20;;;21.30;99.90;;;;;;4181415;28;20668;-79
2022/09/16 01:57:11;;;;;;;2.50;1.00;;;21.30;99.90;;;;;;4181540;28;20635;-79
2022/09/16 01:59:18;;;;;;;3.08;1.45;;;21.30;99.90;;;;;;4182053;28;20284;-79
2022/09/16 02:01:27;;;;;;;2.28;1.00;;;21.30;99.90;;;;;;4181988;28;20269;-79
2022/09/16 02:03:34;;;;;;;3.03;1.30;;;21.20;99.90;;;;;;4180965;28;20231;-79
2022/09/16 02:05:40;;;;;;;1.95;1.20;;;21.30;99.90;;;;;;4181317;28;20227;-79
2022/09/16 02:07:49;;;;;;;1.92;0.93;;;21.20;99.90;;;;;;4181470;28;20257;-79
2022/09/16 02:09:56;;;;;;;1.73;1.00;;;21.30;99.90;;;;;;4180896;28;20220;-79
2022/09/16 02:12:04;;;;;;;1.58;1.00;;;21.30;99.90;;;;;;4181432;28;20267;-79
2022/09/16 02:14:10;;;;;;;2.65;1.30;;;21.20;99.90;;;;;;4180863;28;20261;-79
2022/09/16 02:16:17;;;;;;;2.63;1.33;;;21.20;99.90;;;;;;4180087;28;20632;-79
2022/09/16 02:18:24;;;;;;;2.95;1.10;;;21.20;99.90;;;;;;4178687;28;20219;-79
2022/09/16 02:20:30;;;;;;;3.50;1.20;;;21.20;99.90;;;;;;4179961;28;20219;-79
2022/09/16 02:22:37;;;;;;;2.50;1.00;;;21.20;99.90;;;;;;4177766;28;20295;-79
2022/09/16 02:24:43;;;;;;;3.25;1.10;;;21.20;99.90;;;;;;4179526;28;20282;-80
2022/09/16 02:26:50;;;;;;;1.73;0.90;;;21.30;99.90;;;;;;4180233;28;20215;-79
2022/09/16 02:28:55;;;;;;;2.97;1.00;;;21.20;99.90;;;;;;4179824;28;20276;-79
2022/09/16 02:31:00;;;;;;;2.33;1.10;;;21.20;99.90;;;;;;4179757;28;20349;-79
2022/09/16 02:33:08;;;;;;;2.55;1.25;;;21.30;99.90;;;;;;4179613;28;20219;-79
2022/09/16 02:35:16;;;;;;;1.17;0.90;;;21.20;99.90;;;;;;4178673;28;20211;-79
2022/09/16 02:37:24;;;;;;;2.33;1.08;;;21.20;99.90;;;;;;4175887;28;20227;-79
2022/09/16 02:39:30;;;;;;;1.88;1.10;;;21.20;99.90;;;;;;4177778;28;20220;-79
2022/09/16 02:41:32;;;;;;;2.45;1.20;;;21.20;99.90;;;;;;4178390;28;20219;-79
2022/09/16 02:43:34;;;;;;;3.80;1.10;;;21.20;99.90;;;;;;4179467;28;20238;-79
2022/09/16 02:45:46;;;;;;;2.90;1.15;;;21.20;99.90;;;;;;4179417;28;20257;-79
2022/09/16 02:47:58;;;;;;;1.85;1.00;;;21.20;99.90;;;;;;4179386;28;20211;-79
2022/09/16 02:50:04;;;;;;;1.67;1.00;;;21.20;99.90;;;;;;4177839;28;20242;-79
2022/09/16 02:52:16;;;;;;;2.45;1.15;;;21.20;99.90;;;;;;4177807;28;20261;-79
2022/09/16 02:54:23;;;;;;;2.00;1.02;;;21.20;99.90;;;;;;4175111;28;20237;-79
2022/09/16 02:56:29;;;;;;;2.78;1.20;;;21.20;99.90;;;;;;4178082;28;20265;-79
2022/09/16 02:58:32;;;;;;;3.55;1.25;;;21.20;99.90;;;;;;4177581;28;20220;-79
2022/09/16 03:00:41;;;;;;;1.58;1.08;;;21.20;99.90;;;;;;4178944;28;20219;-80
2022/09/16 03:02:43;;;;;;;1.73;0.90;;;21.20;99.90;;;;;;4176334;28;20215;-79
2022/09/16 03:04:46;;;;;;;2.08;1.05;;;21.20;99.90;;;;;;4176932;28;20573;-79
2022/09/16 03:06:48;;;;;;;2.20;1.20;;;21.20;99.90;;;;;;4178695;28;20231;-79
2022/09/16 03:08:53;;;;;;;2.05;0.90;;;21.20;99.90;;;;;;4179760;28;20219;-79
2022/09/16 03:11:00;;;;;;;2.28;1.00;;;21.20;99.90;;;;;;4179181;28;20224;-79
2022/09/16 03:13:10;;;;;;;2.47;1.13;;;21.20;99.90;;;;;;4179407;28;20253;-79
2022/09/16 03:15:44;;;;;;;2.63;1.10;;;21.20;99.90;;;;;;4176632;28;20277;-79
2022/09/16 03:18:36;;;;;;;2.08;1.00;;;21.20;99.90;;;;;;4169305;28;20741;-79
2022/09/16 03:20:46;;;;;;;2.22;0.93;;;21.20;99.90;;;;;;4125382;28;20214;-79
2022/09/16 03:22:55;;;;;;;2.95;1.10;;;21.20;99.90;;;;;;4166917;28;20223;-79
2022/09/16 03:25:08;;;;;;;2.65;1.00;;;21.20;99.90;;;;;;4180276;28;20286;-79
2022/09/16 03:27:15;;;;;;;2.05;0.98;;;21.20;99.90;;;;;;4173804;28;20219;-79
2022/09/16 03:29:24;;;;;;;1.70;0.90;;;21.20;99.90;;;;;;4180204;28;20223;-79
2022/09/16 03:31:30;;;;;;;1.92;1.00;;;21.10;99.90;;;;;;4175582;28;20226;-79
2022/09/16 03:33:36;;;;;;;1.75;1.10;;;21.20;99.90;;;;;;4180366;28;20211;-79
2022/09/16 03:35:45;;;;;;;2.33;1.00;;;21.20;99.90;;;;;;4179993;28;20261;-79
2022/09/16 03:37:48;;;;;;;4.10;1.13;;;21.20;99.90;;;;;;4169403;28;20211;-79
2022/09/16 03:39:52;;;;;;;1.98;0.80;;;21.20;99.90;;;;;;4179692;28;20208;-79
2022/09/16 03:42:01;;;;;;;1.25;0.90;;;21.10;99.90;;;;;;4180202;28;20265;-79
2022/09/16 03:44:03;;;;;;;1.88;1.20;;;21.20;99.90;;;;;;4179745;28;20269;-80
2022/09/16 03:46:10;;;;;;;2.88;1.10;;;21.10;99.90;;;;;;4179932;28;20325;-80
2022/09/16 03:48:14;;;;;;;1.45;0.80;;;21.10;99.90;;;;;;4179926;28;20266;-80
2022/09/16 03:50:18;;;;;;;1.85;1.00;;;21.10;99.90;;;;;;4180104;28;20220;-79
2022/09/16 03:52:20;;;;;;;1.83;1.00;;;21.20;99.90;;;;;;4179622;28;20224;-79
2022/09/16 03:54:23;;;;;;;1.35;0.93;;;21.10;99.90;;;;;;4179755;28;20257;-80
2022/09/16 03:56:25;;;;;;;1.50;1.17;;;21.20;99.90;;;;;;4180018;28;20569;-80
2022/09/16 03:58:29;;;;;;;1.60;1.00;;;21.20;99.90;;;;;;4180395;28;20220;-80
2022/09/16 04:00:31;;;;;;;2.90;1.10;;;21.10;99.90;;;;;;4169984;28;20326;-79
2022/09/16 04:02:34;;;;;;;1.85;1.08;;;21.10;99.90;;;;;;4180558;28;20216;-79
2022/09/16 04:04:36;;;;;;;2.22;0.90;;;21.10;99.90;;;;;;4176611;28;20239;-80
2022/09/16 04:06:39;;;;;;;1.42;0.90;;;21.10;99.90;;;;;;4178394;28;20595;-79
2022/09/16 04:08:43;;;;;;;1.88;0.90;;;21.10;99.90;;;;;;4182961;28;20212;-80
2022/09/16 04:10:54;;;;;;;1.73;1.10;;;21.10;99.90;;;;;;4183065;28;20219;-79
2022/09/16 04:12:58;;;;;;;1.17;0.80;;;21.10;99.90;;;;;;4182819;28;20216;-80
2022/09/16 04:15:01;;;;;;;2.28;1.17;;;21.20;99.90;;;;;;4181966;28;20224;-79
2022/09/16 04:17:04;;;;;;;2.08;0.90;;;21.10;99.90;;;;;;4182440;28;20969;-80
2022/09/16 04:19:07;;;;;;;1.58;1.10;;;21.10;99.90;;;;;;4182766;28;20219;-79
2022/09/16 04:21:10;;;;;;;1.15;0.73;;;21.10;99.90;;;;;;4183434;28;20320;-80
2022/09/16 04:23:12;;;;;;;1.45;1.00;;;21.10;99.90;;;;;;4172452;28;20281;-79
2022/09/16 04:25:14;;;;;;;2.05;1.08;;;21.10;99.90;;;;;;4187232;28;20236;-78
2022/09/16 04:27:17;;;;;;;1.70;1.00;;;21.10;99.90;;;;;;4184711;28;20619;-79
2022/09/16 04:29:19;;;;;;;1.70;1.10;;;21.10;99.90;;;;;;4181684;28;20293;-79
2022/09/16 04:31:23;;;;;;;2.83;1.00;;;21.10;99.90;;;;;;4182313;28;20220;-79
2022/09/16 04:33:27;;;;;;;1.00;0.82;;;21.10;99.90;;;;;;4181855;28;20584;-79
2022/09/16 04:35:30;;;;;;;2.75;0.93;;;21.10;99.90;;;;;;4181643;28;20620;-79
2022/09/16 04:37:32;;;;;;;1.98;1.10;;;21.10;99.90;;;;;;4181766;28;20601;-79
2022/09/16 04:39:35;;;;;;;1.42;1.05;;;21.10;99.90;;;;;;4180116;28;20808;-79
2022/09/16 04:41:37;;;;;;;2.08;0.98;;;21.10;99.90;;;;;;4181095;28;20212;-79
2022/09/16 04:43:40;;;;;;;3.08;1.20;;;21.10;99.90;;;;;;4180204;28;20885;-79
2022/09/16 04:45:42;;;;;;;1.80;0.90;;;21.10;99.90;;;;;;4181100;28;20641;-80
2022/09/16 04:47:46;;;;;;;1.40;0.80;;;21.10;99.90;;;;;;4181855;28;20220;-79
2022/09/16 04:49:49;;;;;;;3.03;1.20;;;21.10;99.90;;;;;;4181451;28;20337;-79
2022/09/16 04:51:51;;;;;;;2.85;1.00;;;21.10;99.90;;;;;;4181720;28;20216;-79
2022/09/16 04:53:54;;;;;;;2.55;1.15;;;21.10;99.90;;;;;;4181093;28;20212;-79
2022/09/16 04:56:04;;;;;;;2.22;0.95;;;21.10;99.90;;;;;;4179195;28;20730;-79
2022/09/16 04:58:06;;;;;;;2.40;1.00;;;21.10;99.90;;;;;;4180335;28;20565;-79
2022/09/16 05:00:10;;;;;;;2.95;1.20;;;21.10;99.90;;;;;;4179354;28;20695;-79
2022/09/16 05:02:12;;;;;;;2.22;1.00;;;21.10;99.90;;;;;;4180878;28;20273;-79
2022/09/16 05:04:16;;;;;;;3.40;1.30;;;21.10;99.90;;;;;;4180856;28;20227;-79
2022/09/16 05:06:20;;;;;;;2.50;0.93;;;21.10;99.90;;;;;;4181648;28;20239;-79
2022/09/16 05:08:22;;;;;;;1.55;1.13;;;21.10;99.90;;;;;;4180725;28;20627;-79
2022/09/16 05:10:27;;;;;;;1.98;0.88;;;21.10;99.90;;;;;;4179700;28;20621;-79
2022/09/16 05:12:29;;;;;;;1.30;0.95;;;21.10;99.90;;;;;;4178815;28;20618;-80
2022/09/16 05:14:32;;;;;;;2.40;1.10;;;21.10;99.90;;;;;;4180371;28;20626;-80
2022/09/16 05:16:34;;;;;;;2.67;1.17;;;21.10;99.90;;;;;;4180613;28;20216;-80
2022/09/16 05:18:38;;;;;;;2.85;0.93;;;21.10;99.90;;;;;;4180865;28;20289;-80
2022/09/16 05:20:42;;;;;;;3.20;0.93;;;21.10;99.90;;;;;;4181081;28;20620;-80
2022/09/16 05:22:44;;;;;;;1.95;0.93;;;21.10;99.90;;;;;;4180506;28;20224;-80
2022/09/16 05:24:47;;;;;;;2.03;1.00;;;21.10;99.90;;;;;;4181138;28;20227;-80
2022/09/16 05:26:49;;;;;;;1.92;1.00;;;21.00;99.90;;;;;;4180345;28;20314;-80
2022/09/16 05:28:52;;;;;;;2.60;1.15;;;21.00;99.90;;;;;;4180550;28;20246;-80
2022/09/16 05:30:54;;;;;;;2.13;0.90;;;21.00;99.90;;;;;;4178519;28;20945;-80
2022/09/16 05:32:57;;;;;;;1.75;0.98;;;21.00;99.90;;;;;;4177300;28;20668;-80
2022/09/16 05:34:59;;;;;;;1.83;0.82;;;21.00;99.90;;;;;;4179597;28;20273;-80
2022/09/16 05:37:02;;;;;;;2.00;0.93;;;21.00;99.90;;;;;;4179414;28;20215;-80
2022/09/16 05:39:06;;;;;;;3.53;1.05;;;21.00;99.90;;;;;;4179580;28;20216;-80
2022/09/16 05:41:08;;;;;;;1.83;0.98;;;21.00;99.90;;;;;;4179840;28;20216;-80
2022/09/16 05:43:11;;;;;;;1.38;0.60;;;21.00;99.90;;;;;;4179955;28;20364;-79
2022/09/16 05:45:13;;;;;;;1.55;0.90;;;21.00;99.90;;;;;;4179903;28;20219;-80
2022/09/16 05:47:15;;;;;;;2.55;0.85;;;21.00;99.90;;;;;;4176513;28;20232;-80
2022/09/16 05:49:19;;;;;;;1.40;1.00;;;21.00;99.90;;;;;;4179641;28;20633;-80
2022/09/16 05:51:23;;;;;;;2.47;0.82;;;21.00;99.90;;;;;;4180044;28;20227;-80
2022/09/16 05:53:27;;;;;;;1.40;1.00;;;21.00;99.90;;;;;;4179976;28;20736;-80
2022/09/16 05:55:30;;;;;;;1.67;1.10;;;21.00;99.90;;;;;;4180251;28;20269;-80
2022/09/16 05:57:32;;;;;;;1.63;0.98;;;21.00;99.90;;;;;;4179582;28;20238;-80
2022/09/16 05:59:35;;;;;;;2.35;1.10;;;21.00;99.90;;;;;;4179700;28;20216;-80
2022/09/16 06:01:37;;;;;;;2.00;0.88;;;21.00;99.90;;;;;;4180144;28;20212;-80
2022/09/16 06:03:41;;;;;;;3.20;1.17;;;21.00;99.90;;;;;;4177776;28;20270;-79
2022/09/16 06:05:43;;;;;;;2.00;0.95;;;21.00;99.90;;;;;;4180590;28;20290;-80
2022/09/16 06:07:46;;;;;;;2.42;1.02;;;21.00;99.90;;;;;;4180110;28;20216;-80
2022/09/16 06:09:50;;;;;;;2.53;1.08;;;21.00;99.90;;;;;;4180301;28;20220;-79
2022/09/16 06:11:53;;;;;;;1.92;1.10;;;21.00;99.90;;;;;;4179900;28;20274;-79
2022/09/16 06:13:58;;;;;;;2.97;1.00;;;21.00;99.90;;;;;;4180290;28;20241;-80
2022/09/16 06:16:02;;;;;;;3.20;1.17;;;21.00;99.90;;;;;;4179886;28;20312;-79
2022/09/16 06:18:04;;;;;;;1.83;0.88;;;21.00;99.90;;;;;;4180092;28;20208;-80
2022/09/16 06:20:12;;;;;;;2.33;1.05;;;21.00;99.90;;;;;;4180211;28;20664;-80
2022/09/16 06:22:15;;;;;;;2.00;1.17;;;21.00;99.90;;;;;;4176208;28;20211;-80
2022/09/16 06:24:19;;;;;;;1.75;0.95;;;21.00;99.90;;;;;;4178421;28;20267;-80
2022/09/16 06:26:24;;;;;;;2.30;1.20;;;21.00;99.90;;;;;;4177225;28;20582;-80
2022/09/16 06:28:26;;;;;;;2.45;1.20;;;21.00;99.90;;;;;;4179804;28;20262;-80
2022/09/16 06:30:28;;;;;;;2.22;0.95;;;21.00;99.90;;;;;;4178745;28;20253;-80
2022/09/16 06:32:31;;;;;;;2.33;1.10;;;21.00;99.90;;;;;;4179948;28;20933;-80
2022/09/16 06:34:33;;;;;;;2.38;1.00;;;21.00;99.90;;;;;;4179345;28;20242;-80
2022/09/16 06:36:38;;;;;;;3.58;1.10;;;20.90;99.90;;;;;;4179401;28;20224;-80
2022/09/16 06:38:41;;;;;;;1.63;0.77;;;21.00;99.90;;;;;;4177150;28;20220;-80
2022/09/16 06:40:43;;;;;;;1.75;1.00;;;21.00;99.90;;;;;;4179787;28;20211;-80
2022/09/16 06:42:47;;;;;;;2.08;0.93;;;21.00;99.90;;;;;;4179522;28;20227;-80
2022/09/16 06:44:49;;;;;;;2.55;1.08;;;21.00;99.90;;;;;;4179352;28;20631;-80
2022/09/16 06:46:51;;;;;;;1.80;0.98;;;21.00;99.90;;;;;;4179629;28;20232;-79
2022/09/16 06:48:57;;;;;;;1.67;0.80;;;21.00;99.90;;;;;;4177384;28;20220;-80
2022/09/16 06:51:00;;;;;;;2.67;0.73;;;21.00;99.90;;;;;;4179506;28;20223;-80
2022/09/16 06:53:03;;;;;;;1.50;0.80;;;21.00;99.90;;;;;;4179159;28;20631;-80
2022/09/16 06:55:06;;;;;;;1.48;0.90;;;21.00;99.90;;;;;;4177437;28;20219;-80
2022/09/16 06:57:08;;;;;;;2.25;1.20;;;21.00;99.90;;;;;;4179652;28;20243;-79
2022/09/16 06:59:17;;;;;;;3.38;1.00;;;21.00;99.90;;;;;;4177791;28;20268;-80
2022/09/16 07:01:21;;;;;;;1.17;0.70;;;20.90;99.90;;;;;;4176744;28;20238;-78
2022/09/16 07:03:23;;;;;;;2.50;0.90;;;21.00;99.90;;;;;;4174645;28;20216;-74
2022/09/16 07:05:25;;;;;;;2.45;1.00;;;21.00;99.90;;;;;;4169149;28;20243;-73
2022/09/16 07:07:30;;;;;;;2.13;1.02;;;21.00;99.90;;;;;;4166223;28;20240;-73
2022/09/16 07:09:33;;;;;;;2.67;1.20;;;21.00;99.90;;;;;;4174689;28;20208;-73
2022/09/16 07:11:35;;;;;;;2.10;1.08;;;21.00;99.90;;;;;;4177434;28;20261;-73
2022/09/16 07:13:38;;;;;;;3.45;1.30;;;21.10;99.90;;;;;;4159884;28;20239;-73
2022/09/16 07:15:41;;;;;;;2.78;0.90;;;21.10;99.90;;;;;;4175019;28;20261;-73
2022/09/16 07:17:44;;;;;;;3.90;0.85;;;21.10;99.90;;;;;;4177639;28;20602;-72
2022/09/16 07:19:47;;;;;;;2.28;0.93;;;21.10;99.90;;;;;;4180997;28;20254;-73
2022/09/16 07:21:49;;;;;;;4.13;1.15;;;21.10;99.90;;;;;;4182257;28;20637;-73
2022/09/16 07:23:54;;;;;;;1.40;0.90;;;21.20;99.90;;;;;;4177573;28;20653;-73
2022/09/16 07:26:01;;;;;;;4.10;1.08;;;21.20;99.90;;;;;;4181892;28;20216;-73
2022/09/16 07:28:03;;;;;;;3.33;1.10;;;21.20;99.90;;;;;;4176688;28;20220;-73
2022/09/16 07:30:07;;;;;;;1.42;0.80;;;21.20;99.90;;;;;;4176533;28;20265;-73
2022/09/16 07:32:10;;;;;;;2.88;1.08;;;21.20;99.90;;;;;;4176664;28;20211;-73
2022/09/16 07:34:13;;;;;;;8.18;1.35;;;21.20;99.90;;;;;;4175763;28;20732;-73
2022/09/16 07:36:18;;;;;;;2.28;1.10;;;21.20;99.90;;;;;;4178180;28;20282;-74
2022/09/16 07:38:20;;;;;;;2.88;1.25;;;21.20;99.90;;;;;;4176001;28;20261;-73
2022/09/16 07:40:22;;;;;;;2.20;1.20;;;21.10;99.90;;;;;;4176717;28;20220;-73
2022/09/16 07:42:25;;;;;;;5.05;1.17;;;20.90;99.90;;;;;;4174727;28;20227;-73
2022/09/16 07:44:27;;;;;;;4.10;1.30;;;20.80;99.90;;;;;;4174459;28;20220;-73
2022/09/16 07:46:31;;;;;;;4.05;1.40;;;20.70;99.90;;;;;;4172902;28;20231;-72
2022/09/16 07:48:36;;;;;;;4.80;1.25;;;20.60;99.90;;;;;;4171397;28;20266;-70
2022/09/16 07:50:38;;;;;;;2.13;0.93;;;20.70;99.90;;;;;;4177352;28;20216;-72
2022/09/16 07:52:40;;;;;;;1.92;0.95;;;20.80;99.90;;;;;;4176378;28;20266;-72
2022/09/16 07:54:42;;;;;;;4.38;1.15;;;20.90;99.90;;;;;;4176861;28;20604;-73
2022/09/16 07:56:45;;;;;;;3.53;1.20;;;20.90;99.90;;;;;;4177726;28;20303;-72
2022/09/16 07:58:48;;;;;;;3.97;1.23;;;21.00;99.90;;;;;;4175236;28;20729;-72
2022/09/16 08:00:50;;;;;;;2.03;0.90;;;21.10;99.90;;;;;;4174661;28;20212;-72
2022/09/16 08:02:56;;;;;;;3.95;1.00;;;21.10;99.90;;;;;;4176631;28;20212;-72
2022/09/16 08:05:00;;;;;;;2.17;0.90;;;21.10;99.90;;;;;;4176551;28;20223;-73
2022/09/16 08:07:02;;;;;;;5.32;0.98;;;21.20;99.90;;;;;;4182279;28;20235;-72
2022/09/16 08:09:05;;;;;;;3.38;1.00;;;21.20;99.90;;;;;;4178166;28;20215;-79
2022/09/16 08:11:07;;;;;;;3.95;1.15;;;21.20;99.90;;;;;;4176876;28;20265;-78
2022/09/16 08:13:10;;;;;;;3.08;1.10;;;21.30;99.90;;;;;;4174317;28;20215;-77
2022/09/16 08:15:12;;;;;;;2.67;1.15;;;21.30;99.90;;;;;;4175936;28;20227;-77
2022/09/16 08:17:15;;;;;;;1.75;1.10;;;21.30;99.90;;;;;;4173381;28;20664;-77
2022/09/16 08:19:18;;;;;;;6.80;1.25;;;21.30;99.90;;;;;;4170866;28;20305;-77
2022/09/16 08:21:24;;;;;;;3.33;1.20;;;21.40;99.90;;;;;;4168045;28;20224;-77
2022/09/16 08:23:26;;;;;;;2.28;1.05;;;21.40;99.90;;;;;;4172370;28;20914;-78
2022/09/16 08:25:29;;;;;;;3.20;0.90;;;21.40;99.90;;;;;;4173531;28;20215;-77
2022/09/16 08:27:35;;;;;;;4.18;0.95;;;21.40;99.90;;;;;;4174629;28;20286;-77
2022/09/16 08:29:37;;;;;;;2.70;0.90;;;21.40;99.90;;;;;;4178468;28;20223;-77
2022/09/16 08:31:39;;;;;;;4.53;0.95;;;21.50;99.90;;;;;;4174260;28;20211;-78
2022/09/16 08:33:42;;;;;;;3.42;1.00;;;21.40;99.90;;;;;;4175637;28;20212;-79
2022/09/16 08:35:57;;;;;;;6.45;1.38;;;21.40;99.90;;;;;;4172957;28;20216;-79
2022/09/16 08:38:00;;;;;;;4.85;1.10;;;21.10;99.90;;;;;;4175783;28;20257;-78
2022/09/16 08:40:05;;;;;;;7.60;1.17;;;21.10;99.90;;;;;;4172306;28;20268;-77
2022/09/16 08:42:28;;;;;;;10.55;1.70;;;20.70;99.90;;;;;;4175941;28;20272;-80
2022/09/16 08:44:38;;;;;;;14.05;1.75;;;20.50;99.90;;;;;;4174370;28;20262;-78
2022/09/16 08:46:47;;;;;;;4.60;1.55;;;20.70;99.90;;;;;;4177047;28;20211;-79
2022/09/16 08:48:57;;;;;;;6.53;1.30;;;20.60;99.90;;;;;;4178790;28;20272;-79
2022/09/16 08:51:00;;;;;;;7.53;1.55;;;20.60;99.90;;;;;;4172936;28;20274;-80
2022/09/16 08:53:12;;;;;;;4.65;1.10;;;20.60;99.90;;;;;;4171947;28;20221;-78
2022/09/16 08:55:19;;;;;;;6.63;0.93;;;20.70;99.90;;;;;;4174741;28;20627;-80
2022/09/16 08:57:25;;;;;;;4.70;1.10;;;20.70;99.90;;;;;;4176212;28;20265;-79
2022/09/16 08:59:32;;;;;;;6.10;1.25;;;20.70;99.90;;;;;;4177866;28;20223;-82
2022/09/16 09:01:38;;;;;;;4.80;1.30;;;20.60;99.90;;;;;;4176097;28;20710;-81
2022/09/16 09:03:42;;;;;;;4.00;1.13;;;20.80;99.90;;;;;;4176606;28;20212;-77
2022/09/16 09:05:51;;;;;;;3.20;1.13;;;20.90;99.90;;;;;;4171979;28;20232;-76
2022/09/16 09:08:19;;;;;;;5.65;1.38;;;20.80;99.90;;;;;;4173348;28;20239;-78
2022/09/16 09:10:29;;;;;;;5.80;1.33;;;20.90;99.90;;;;;;4172234;28;20274;-79
2022/09/16 09:12:37;;;;;;;4.75;1.30;;;21.00;99.90;;;;;;4172354;28;20218;-78
2022/09/16 09:14:51;;;;;;;4.22;1.15;;;20.90;99.90;;;;;;4172916;28;20551;-78
2022/09/16 09:16:59;;;;;;;6.72;1.40;;;20.90;99.90;;;;;;4172393;28;20266;-79
2022/09/16 09:19:13;;;;;;;3.85;1.30;;;21.00;99.90;;;;;;4177935;28;20219;-79
2022/09/16 09:21:26;;;;;;;7.63;1.60;;;21.10;99.90;;;;;;4174118;28;20637;-79
2022/09/16 09:23:52;;;;;;;4.20;1.50;;;21.10;99.90;;;;;;4172991;28;20263;-79
2022/09/16 09:25:59;;;;;;;10.40;1.95;;;20.90;99.90;;;;;;4173472;28;20234;-77
2022/09/16 09:28:20;;;;;;;5.53;1.50;;;21.00;99.90;;;;;;4167218;28;20290;-76
2022/09/16 09:30:25;;;;;;;5.60;1.30;;;21.00;99.90;;;;;;4176955;28;20208;-76
2022/09/16 09:32:36;;;;;;;3.85;1.27;;;21.10;99.90;;;;;;4177373;28;20266;-75
2022/09/16 09:34:52;;;;;;;5.03;1.30;;;21.20;99.90;;;;;;4175194;28;20219;-77
2022/09/16 09:37:04;;;;;;;4.07;1.52;;;21.10;99.90;;;;;;4170978;28;20255;-76
2022/09/16 09:39:31;;;;;;;3.88;1.40;;;21.10;99.90;;;;;;4172053;28;20224;-78
2022/09/16 09:41:39;;;;;;;3.00;1.20;;;21.20;99.90;;;;;;4167097;28;20602;-78
2022/09/16 09:43:58;;;;;;;6.57;1.33;;;21.20;99.90;;;;;;4172170;28;20264;-76
2022/09/16 09:46:03;;;;;;;5.30;1.40;;;21.10;99.90;;;;;;4159852;28;20216;-78
2022/09/16 09:48:18;;;;;;;7.97;1.50;;;21.10;99.90;;;;;;4169997;28;20285;-77
2022/09/16 09:50:25;;;;;;;5.97;1.30;;;21.10;99.90;;;;;;4171202;28;20249;-77
2022/09/16 09:52:34;;;;;;;4.05;1.33;;;21.10;99.90;;;;;;4172239;28;20219;-77
2022/09/16 09:54:40;;;;;;;3.80;1.30;;;21.20;99.90;;;;;;4172822;28;20245;-78
2022/09/16 09:56:45;;;;;;;3.38;1.13;;;21.30;99.90;;;;;;4173449;28;20211;-79
2022/09/16 09:58:57;;;;;;;3.92;1.33;;;21.20;99.90;;;;;;4174199;28;20212;-78
2022/09/16 10:00:59;;;;;;;5.32;1.25;;;21.20;99.90;;;;;;4173177;28;20215;-79
2022/09/16 10:03:06;;;;;;;3.38;1.05;;;21.20;99.90;;;;;;4172930;28;20227;-77
2022/09/16 10:05:18;;;;;;;6.40;1.52;;;21.20;99.90;;;;;;4174038;28;20242;-78
2022/09/16 10:07:23;;;;;;;3.92;1.08;;;21.30;99.90;;;;;;4171716;28;20301;-79
2022/09/16 10:09:26;;;;;;;4.50;1.23;;;21.20;99.90;;;;;;4176831;28;20619;-75
2022/09/16 10:11:31;;;;;;;6.28;1.60;;;21.30;99.90;;;;;;4170293;28;20258;-76
2022/09/16 10:13:35;;;;;;;4.22;1.60;;;21.30;99.90;;;;;;4171617;28;20208;-77
2022/09/16 10:15:37;;;;;;;7.93;1.40;;;21.30;99.90;;;;;;4173230;28;20657;-77
2022/09/16 10:17:48;;;;;;;5.25;1.58;;;21.40;99.90;;;;;;4172088;28;20215;-77
2022/09/16 10:19:56;;;;;;;4.22;1.65;;;21.50;99.90;;;;;;4172797;28;20623;-79
2022/09/16 10:22:10;;;;;;;3.95;1.35;;;21.60;99.90;;;;;;4172064;28;20824;-77
2022/09/16 10:24:29;;;;;;;5.57;1.45;;;21.60;99.90;;;;;;4172890;28;20231;-77
2022/09/16 10:26:40;;;;;;;11.50;1.70;;;21.60;99.90;;;;;;4173347;28;20219;-74
2022/09/16 10:28:57;;;;;;;4.80;1.40;;;21.70;99.90;;;;;;4173394;28;20231;-78
2022/09/16 10:31:01;;;;;;;4.10;1.50;;;21.70;99.90;;;;;;4171512;28;20211;-78
2022/09/16 10:33:06;;;;;;;4.93;1.35;;;21.60;99.90;;;;;;4175741;28;20240;-78
2022/09/16 10:35:10;;;;;;;4.53;1.67;;;21.70;99.90;;;;;;4170626;28;20265;-77
2022/09/16 10:37:18;;;;;;;2.97;1.27;;;21.70;99.90;;;;;;4172960;28;20273;-78
2022/09/16 10:39:24;;;;;;;3.53;1.60;;;21.70;99.90;;;;;;4172263;28;20281;-78
2022/09/16 10:41:31;;;;;;;4.55;1.73;;;21.70;99.90;;;;;;4171871;28;20268;-78
2022/09/16 10:43:38;;;;;;;3.28;1.23;;;21.70;99.90;;;;;;4169095;28;20215;-77
2022/09/16 10:45:51;;;;;;;3.97;1.40;;;21.70;99.90;;;;;;4170440;28;20301;-76
2022/09/16 10:47:56;;;;;;;3.53;1.52;;;21.70;99.90;;;;;;4169752;28;20270;-75
2022/09/16 10:50:02;;;;;;;4.05;1.42;;;21.70;99.90;;;;;;4170668;28;20318;-76
2022/09/16 10:52:09;;;;;;;4.15;1.73;;;21.70;99.90;;;;;;4174829;28;20269;-73
2022/09/16 10:54:26;;;;;;;3.03;1.33;;;21.80;99.90;;;;;;4171625;28;20696;-78